Bear Lake Sensor

id: 17

owner_id: 2

hardware_id: 189316970241468

Charts

For a 5kW equivalent system

Last 20 Readings

timestamp peak_power_mW peak_current_mA peak_voltage_V temp_celsius batt_V
2019-11-16T16:32:54 79.41834259033203 20.40996551513672 5.784824848175049 -8.857139587402344 3.8688290119171143
2019-11-16T16:32:34 94.27005004882813 23.61153221130371 5.931897163391113 -8.761903762817383 3.8688290119171143
2019-11-16T16:32:13 124.287353515625 31.748838424682617 6.127992153167725 -8.857139587402344 3.8688290119171143
2019-11-16T16:31:52 104.84477233886719 26.01270294189453 6.029943943023682 -8.857139587402344 3.86466908454895
2019-11-16T16:31:31 124.287353515625 31.882234573364258 6.127992153167725 -8.761903762817383 3.86466908454895
2019-11-16T16:31:11 115.36064147949219 28.680673599243164 6.0789690017700195 -8.761903762817383 3.86466908454895
2019-11-16T16:30:50 108.29774475097656 26.813093185424805 6.029943943023682 -8.857139587402344 3.8688290119171143
2019-11-16T16:30:29 119.55260467529297 29.88125991821289 6.127992153167725 -8.761903762817383 3.86466908454895
2019-11-16T16:30:08 114.18348693847656 28.01367950439453 6.0789690017700195 -8.857139587402344 3.8688290119171143
2019-11-16T16:29:48 93.66184997558594 23.61153221130371 5.931897163391113 -8.666664123535156 3.8688290119171143
2019-11-16T16:29:27 87.90689849853516 22.277545928955078 5.882873058319092 -8.857139587402344 3.8688290119171143
2019-11-16T16:29:06 75.96538543701172 19.74297332763672 5.784824848175049 -8.761903762817383 3.86466908454895
2019-11-16T16:28:45 74.53317260742188 19.476177215576172 5.784824848175049 -8.666664123535156 3.8688290119171143
2019-11-16T16:28:25 77.6918716430664 20.009769439697266 5.83384895324707 -8.476188659667969 3.86466908454895
2019-11-16T16:28:04 94.27005004882813 23.61153221130371 5.931897163391113 -8.476188659667969 3.8688290119171143
2019-11-16T16:27:43 77.6918716430664 20.009769439697266 5.83384895324707 -8.380949020385742 3.8688290119171143
2019-11-16T16:27:22 98.29197692871094 24.67871856689453 5.980920791625977 -8.476188659667969 3.86466908454895
2019-11-16T16:27:01 112.4504623413086 27.61348533630371 6.0789690017700195 -8.095234870910645 3.8688290119171143
2019-11-16T16:26:41 107.12060546875 26.546295166015625 6.029943943023682 -8.095234870910645 3.8688290119171143
2019-11-16T16:26:20 80.2815933227539 20.543365478515625 5.882873058319092 -7.999998092651367 3.86466908454895

More Charts

Raw readings data from the past 5 days